sensor_id;sensor_type;location;lat;lon;timestamp;P1;durP1;ratioP1;P2;durP2;ratioP2
72882;SDS011;61017;37.812;-122.286;2022-12-07T00:00:35;0.85;;;0.57;;
72882;SDS011;61017;37.812;-122.286;2022-12-07T00:02:28;0.88;;;0.63;;
72882;SDS011;61017;37.812;-122.286;2022-12-07T00:04:19;1.63;;;0.65;;
72882;SDS011;61017;37.812;-122.286;2022-12-07T00:06:10;1.58;;;0.80;;
72882;SDS011;61017;37.812;-122.286;2022-12-07T00:08:01;1.38;;;0.70;;
72882;SDS011;61017;37.812;-122.286;2022-12-07T00:09:53;1.55;;;0.70;;
72882;SDS011;61017;37.812;-122.286;2022-12-07T00:11:44;1.23;;;0.60;;
72882;SDS011;61017;37.812;-122.286;2022-12-07T00:13:37;2.50;;;0.70;;
72882;SDS011;61017;37.812;-122.286;2022-12-07T00:15:28;2.17;;;0.70;;
72882;SDS011;61017;37.812;-122.286;2022-12-07T00:17:18;1.80;;;0.70;;
72882;SDS011;61017;37.812;-122.286;2022-12-07T00:19:12;1.25;;;0.63;;
72882;SDS011;61017;37.812;-122.286;2022-12-07T00:21:04;0.70;;;0.60;;
72882;SDS011;61017;37.812;-122.286;2022-12-07T00:23:00;1.27;;;0.70;;
72882;SDS011;61017;37.812;-122.286;2022-12-07T00:24:50;0.68;;;0.60;;
72882;SDS011;61017;37.812;-122.286;2022-12-07T00:26:40;1.27;;;0.70;;
72882;SDS011;61017;37.812;-122.286;2022-12-07T00:28:31;1.00;;;0.70;;
72882;SDS011;61017;37.812;-122.286;2022-12-07T00:30:22;1.42;;;0.70;;
72882;SDS011;61017;37.812;-122.286;2022-12-07T00:32:12;1.17;;;0.80;;
72882;SDS011;61017;37.812;-122.286;2022-12-07T00:34:03;1.50;;;0.70;;
72882;SDS011;61017;37.812;-122.286;2022-12-07T00:35:57;1.05;;;0.70;;
72882;SDS011;61017;37.812;-122.286;2022-12-07T00:37:47;1.27;;;0.70;;
72882;SDS011;61017;37.812;-122.286;2022-12-07T00:39:42;1.05;;;0.60;;
72882;SDS011;61017;37.812;-122.286;2022-12-07T00:41:36;1.40;;;0.80;;
72882;SDS011;61017;37.812;-122.286;2022-12-07T00:43:27;0.93;;;0.70;;
72882;SDS011;61017;37.812;-122.286;2022-12-07T00:45:17;1.80;;;0.80;;
72882;SDS011;61017;37.812;-122.286;2022-12-07T00:47:07;1.08;;;0.60;;
72882;SDS011;61017;37.812;-122.286;2022-12-07T00:48:57;1.50;;;0.80;;
72882;SDS011;61017;37.812;-122.286;2022-12-07T00:50:47;1.55;;;0.73;;
72882;SDS011;61017;37.812;-122.286;2022-12-07T00:52:39;1.40;;;0.73;;
72882;SDS011;61017;37.812;-122.286;2022-12-07T00:54:29;1.38;;;0.70;;
72882;SDS011;61017;37.812;-122.286;2022-12-07T00:56:26;1.10;;;0.63;;
72882;SDS011;61017;37.812;-122.286;2022-12-07T00:58:18;1.00;;;0.70;;
72882;SDS011;61017;37.812;-122.286;2022-12-07T01:00:10;1.17;;;0.70;;
72882;SDS011;61017;37.812;-122.286;2022-12-07T01:02:00;1.48;;;0.78;;
72882;SDS011;61017;37.812;-122.286;2022-12-07T01:03:50;1.35;;;0.75;;
72882;SDS011;61017;37.812;-122.286;2022-12-07T01:05:52;1.05;;;0.55;;
72882;SDS011;61017;37.812;-122.286;2022-12-07T01:07:43;1.75;;;0.70;;
72882;SDS011;61017;37.812;-122.286;2022-12-07T01:09:32;1.15;;;0.80;;
72882;SDS011;61017;37.812;-122.286;2022-12-07T01:11:24;1.10;;;0.70;;
72882;SDS011;61017;37.812;-122.286;2022-12-07T01:13:21;2.13;;;0.70;;
72882;SDS011;61017;37.812;-122.286;2022-12-07T01:15:10;2.05;;;0.60;;
72882;SDS011;61017;37.812;-122.286;2022-12-07T01:17:01;0.73;;;0.50;;
72882;SDS011;61017;37.812;-122.286;2022-12-07T01:18:54;0.50;;;0.50;;
72882;SDS011;61017;37.812;-122.286;2022-12-07T01:20:56;1.25;;;0.70;;
72882;SDS011;61017;37.812;-122.286;2022-12-07T01:23:07;0.95;;;0.70;;
72882;SDS011;61017;37.812;-122.286;2022-12-07T01:25:01;1.15;;;0.70;;
72882;SDS011;61017;37.812;-122.286;2022-12-07T01:26:51;1.75;;;0.68;;
72882;SDS011;61017;37.812;-122.286;2022-12-07T01:28:43;1.15;;;0.60;;
72882;SDS011;61017;37.812;-122.286;2022-12-07T01:30:34;2.45;;;0.80;;
72882;SDS011;61017;37.812;-122.286;2022-12-07T01:32:24;0.70;;;0.60;;
72882;SDS011;61017;37.812;-122.286;2022-12-07T01:34:15;1.42;;;0.63;;
72882;SDS011;61017;37.812;-122.286;2022-12-07T01:38:06;1.83;;;0.70;;
72882;SDS011;61017;37.812;-122.286;2022-12-07T01:39:57;1.48;;;0.60;;
72882;SDS011;61017;37.812;-122.286;2022-12-07T01:41:56;1.30;;;0.70;;
72882;SDS011;61017;37.812;-122.286;2022-12-07T01:46:10;1.00;;;0.70;;
72882;SDS011;61017;37.812;-122.286;2022-12-07T01:48:00;1.52;;;0.70;;
72882;SDS011;61017;37.812;-122.286;2022-12-07T01:49:51;0.75;;;0.50;;
72882;SDS011;61017;37.812;-122.286;2022-12-07T01:51:41;1.30;;;0.70;;
72882;SDS011;61017;37.812;-122.286;2022-12-07T01:53:37;1.33;;;0.60;;
72882;SDS011;61017;37.812;-122.286;2022-12-07T01:55:30;1.63;;;0.70;;
72882;SDS011;61017;37.812;-122.286;2022-12-07T01:57:20;1.73;;;0.73;;
72882;SDS011;61017;37.812;-122.286;2022-12-07T01:59:14;0.70;;;0.65;;
72882;SDS011;61017;37.812;-122.286;2022-12-07T02:01:06;1.52;;;0.68;;
72882;SDS011;61017;37.812;-122.286;2022-12-07T02:03:01;1.55;;;0.85;;
72882;SDS011;61017;37.812;-122.286;2022-12-07T02:04:56;1.17;;;0.60;;
72882;SDS011;61017;37.812;-122.286;2022-12-07T02:06:53;0.98;;;0.52;;
72882;SDS011;61017;37.812;-122.286;2022-12-07T02:08:45;1.20;;;0.70;;
72882;SDS011;61017;37.812;-122.286;2022-12-07T02:10:36;1.08;;;0.60;;
72882;SDS011;61017;37.812;-122.286;2022-12-07T02:12:26;1.15;;;0.68;;
72882;SDS011;61017;37.812;-122.286;2022-12-07T02:14:16;0.90;;;0.55;;
72882;SDS011;61017;37.812;-122.286;2022-12-07T02:22:38;1.75;;;0.80;;
72882;SDS011;61017;37.812;-122.286;2022-12-07T02:25:13;1.70;;;0.70;;
72882;SDS011;61017;37.812;-122.286;2022-12-07T02:27:33;1.92;;;0.55;;
72882;SDS011;61017;37.812;-122.286;2022-12-07T02:29:27;1.00;;;0.60;;
72882;SDS011;61017;37.812;-122.286;2022-12-07T02:31:43;1.38;;;0.63;;
72882;SDS011;61017;37.812;-122.286;2022-12-07T02:34:02;1.48;;;0.80;;
72882;SDS011;61017;37.812;-122.286;2022-12-07T02:37:58;1.17;;;0.60;;
72882;SDS011;61017;37.812;-122.286;2022-12-07T02:40:14;2.35;;;1.00;;
72882;SDS011;61017;37.812;-122.286;2022-12-07T02:42:02;0.90;;;0.57;;
72882;SDS011;61017;37.812;-122.286;2022-12-07T02:44:05;0.82;;;0.70;;
72882;SDS011;61017;37.812;-122.286;2022-12-07T02:46:01;1.00;;;0.68;;
72882;SDS011;61017;37.812;-122.286;2022-12-07T02:47:55;1.85;;;0.68;;
72882;SDS011;61017;37.812;-122.286;2022-12-07T02:49:47;0.82;;;0.63;;
72882;SDS011;61017;37.812;-122.286;2022-12-07T02:51:41;1.98;;;0.70;;
72882;SDS011;61017;37.812;-122.286;2022-12-07T02:53:34;1.20;;;0.70;;
72882;SDS011;61017;37.812;-122.286;2022-12-07T02:55:28;2.03;;;0.90;;
72882;SDS011;61017;37.812;-122.286;2022-12-07T03:03:39;1.45;;;0.80;;
72882;SDS011;61017;37.812;-122.286;2022-12-07T03:05:49;1.40;;;0.60;;
72882;SDS011;61017;37.812;-122.286;2022-12-07T03:08:00;0.95;;;0.70;;
72882;SDS011;61017;37.812;-122.286;2022-12-07T03:14:47;2.63;;;0.90;;
72882;SDS011;61017;37.812;-122.286;2022-12-07T03:16:49;0.95;;;0.70;;
72882;SDS011;61017;37.812;-122.286;2022-12-07T03:21:10;3.28;;;1.00;;
72882;SDS011;61017;37.812;-122.286;2022-12-07T03:23:05;2.60;;;1.00;;
72882;SDS011;61017;37.812;-122.286;2022-12-07T03:24:58;2.35;;;0.95;;
72882;SDS011;61017;37.812;-122.286;2022-12-07T03:26:52;2.63;;;0.98;;
72882;SDS011;61017;37.812;-122.286;2022-12-07T03:29:04;1.63;;;0.80;;
72882;SDS011;61017;37.812;-122.286;2022-12-07T03:33:20;3.58;;;1.10;;
72882;SDS011;61017;37.812;-122.286;2022-12-07T03:35:29;2.03;;;0.90;;
72882;SDS011;61017;37.812;-122.286;2022-12-07T03:39:28;2.20;;;1.10;;
72882;SDS011;61017;37.812;-122.286;2022-12-07T03:41:24;1.63;;;0.98;;
72882;SDS011;61017;37.812;-122.286;2022-12-07T03:43:17;3.10;;;1.30;;
72882;SDS011;61017;37.812;-122.286;2022-12-07T03:45:09;2.50;;;1.00;;
72882;SDS011;61017;37.812;-122.286;2022-12-07T03:49:27;3.25;;;1.13;;
72882;SDS011;61017;37.812;-122.286;2022-12-07T03:51:40;2.67;;;1.02;;
72882;SDS011;61017;37.812;-122.286;2022-12-07T03:54:01;1.85;;;1.02;;
72882;SDS011;61017;37.812;-122.286;2022-12-07T03:56:17;1.80;;;1.00;;
72882;SDS011;61017;37.812;-122.286;2022-12-07T03:58:13;1.88;;;1.10;;
72882;SDS011;61017;37.812;-122.286;2022-12-07T04:00:09;2.10;;;1.10;;
72882;SDS011;61017;37.812;-122.286;2022-12-07T04:02:02;2.13;;;1.00;;
72882;SDS011;61017;37.812;-122.286;2022-12-07T04:03:54;2.72;;;1.00;;
72882;SDS011;61017;37.812;-122.286;2022-12-07T04:05:46;1.85;;;1.00;;
72882;SDS011;61017;37.812;-122.286;2022-12-07T04:07:37;2.17;;;1.20;;
72882;SDS011;61017;37.812;-122.286;2022-12-07T04:09:27;2.45;;;1.13;;
72882;SDS011;61017;37.812;-122.286;2022-12-07T04:11:18;2.17;;;0.90;;
72882;SDS011;61017;37.812;-122.286;2022-12-07T04:13:08;2.38;;;1.20;;
72882;SDS011;61017;37.812;-122.286;2022-12-07T04:14:58;2.22;;;1.02;;
72882;SDS011;61017;37.812;-122.286;2022-12-07T04:16:49;2.03;;;1.05;;
72882;SDS011;61017;37.812;-122.286;2022-12-07T04:18:47;3.83;;;1.27;;
72882;SDS011;61017;37.812;-122.286;2022-12-07T04:20:40;1.92;;;1.08;;
72882;SDS011;61017;37.812;-122.286;2022-12-07T04:22:30;2.55;;;1.23;;
72882;SDS011;61017;37.812;-122.286;2022-12-07T04:24:30;1.70;;;1.13;;
72882;SDS011;61017;37.812;-122.286;2022-12-07T04:26:21;2.03;;;1.10;;
72882;SDS011;61017;37.812;-122.286;2022-12-07T04:28:12;2.33;;;1.15;;
72882;SDS011;61017;37.812;-122.286;2022-12-07T04:30:02;2.83;;;1.17;;
72882;SDS011;61017;37.812;-122.286;2022-12-07T04:31:53;3.05;;;1.20;;
72882;SDS011;61017;37.812;-122.286;2022-12-07T04:33:43;3.60;;;1.20;;
72882;SDS011;61017;37.812;-122.286;2022-12-07T04:35:33;3.65;;;1.02;;
72882;SDS011;61017;37.812;-122.286;2022-12-07T04:37:24;2.85;;;1.27;;
72882;SDS011;61017;37.812;-122.286;2022-12-07T04:39:27;5.43;;;1.20;;
72882;SDS011;61017;37.812;-122.286;2022-12-07T04:41:18;3.47;;;1.40;;
72882;SDS011;61017;37.812;-122.286;2022-12-07T04:43:09;5.60;;;1.58;;
72882;SDS011;61017;37.812;-122.286;2022-12-07T04:44:59;3.95;;;1.40;;
72882;SDS011;61017;37.812;-122.286;2022-12-07T04:46:50;5.57;;;1.20;;
72882;SDS011;61017;37.812;-122.286;2022-12-07T04:48:41;4.15;;;1.15;;
72882;SDS011;61017;37.812;-122.286;2022-12-07T04:50:31;3.15;;;1.30;;
72882;SDS011;61017;37.812;-122.286;2022-12-07T04:52:21;3.40;;;1.40;;
72882;SDS011;61017;37.812;-122.286;2022-12-07T04:54:15;4.13;;;1.30;;
72882;SDS011;61017;37.812;-122.286;2022-12-07T04:56:06;2.97;;;1.40;;
72882;SDS011;61017;37.812;-122.286;2022-12-07T04:57:56;3.22;;;1.30;;
72882;SDS011;61017;37.812;-122.286;2022-12-07T04:59:46;2.58;;;1.23;;
72882;SDS011;61017;37.812;-122.286;2022-12-07T05:01:36;3.72;;;1.40;;
72882;SDS011;61017;37.812;-122.286;2022-12-07T05:03:26;3.15;;;1.27;;
72882;SDS011;61017;37.812;-122.286;2022-12-07T05:05:16;3.25;;;1.30;;
72882;SDS011;61017;37.812;-122.286;2022-12-07T05:07:06;2.38;;;1.20;;
72882;SDS011;61017;37.812;-122.286;2022-12-07T05:08:56;3.92;;;1.20;;
72882;SDS011;61017;37.812;-122.286;2022-12-07T05:10:48;3.42;;;1.30;;
72882;SDS011;61017;37.812;-122.286;2022-12-07T05:12:38;2.03;;;1.25;;
72882;SDS011;61017;37.812;-122.286;2022-12-07T05:14:29;3.13;;;1.40;;
72882;SDS011;61017;37.812;-122.286;2022-12-07T05:16:19;3.75;;;1.30;;
72882;SDS011;61017;37.812;-122.286;2022-12-07T05:18:10;3.05;;;1.13;;
72882;SDS011;61017;37.812;-122.286;2022-12-07T05:20:00;2.60;;;1.40;;
72882;SDS011;61017;37.812;-122.286;2022-12-07T05:21:51;2.70;;;1.30;;
72882;SDS011;61017;37.812;-122.286;2022-12-07T05:23:41;2.20;;;1.17;;
72882;SDS011;61017;37.812;-122.286;2022-12-07T05:25:31;2.50;;;1.10;;
72882;SDS011;61017;37.812;-122.286;2022-12-07T05:27:22;2.67;;;1.30;;
72882;SDS011;61017;37.812;-122.286;2022-12-07T05:29:15;2.55;;;1.20;;
72882;SDS011;61017;37.812;-122.286;2022-12-07T05:31:06;1.85;;;1.20;;
72882;SDS011;61017;37.812;-122.286;2022-12-07T05:33:05;2.83;;;1.20;;
72882;SDS011;61017;37.812;-122.286;2022-12-07T05:34:55;2.05;;;1.10;;
72882;SDS011;61017;37.812;-122.286;2022-12-07T05:36:46;1.95;;;1.10;;
72882;SDS011;61017;37.812;-122.286;2022-12-07T05:38:36;2.83;;;1.30;;
72882;SDS011;61017;37.812;-122.286;2022-12-07T05:40:26;2.83;;;1.35;;
72882;SDS011;61017;37.812;-122.286;2022-12-07T05:42:16;2.35;;;1.17;;
72882;SDS011;61017;37.812;-122.286;2022-12-07T05:44:06;2.85;;;1.10;;
72882;SDS011;61017;37.812;-122.286;2022-12-07T05:45:57;4.13;;;1.30;;
72882;SDS011;61017;37.812;-122.286;2022-12-07T05:47:47;2.83;;;1.30;;
72882;SDS011;61017;37.812;-122.286;2022-12-07T05:49:37;2.58;;;1.40;;
72882;SDS011;61017;37.812;-122.286;2022-12-07T05:51:27;2.25;;;1.20;;
72882;SDS011;61017;37.812;-122.286;2022-12-07T05:53:18;3.15;;;1.30;;
72882;SDS011;61017;37.812;-122.286;2022-12-07T05:55:09;3.10;;;1.33;;
72882;SDS011;61017;37.812;-122.286;2022-12-07T05:56:59;3.50;;;1.40;;
72882;SDS011;61017;37.812;-122.286;2022-12-07T05:58:50;3.50;;;1.60;;
72882;SDS011;61017;37.812;-122.286;2022-12-07T06:00:40;2.35;;;1.33;;
72882;SDS011;61017;37.812;-122.286;2022-12-07T06:02:29;3.65;;;1.45;;
72882;SDS011;61017;37.812;-122.286;2022-12-07T06:04:20;3.00;;;1.40;;
72882;SDS011;61017;37.812;-122.286;2022-12-07T06:06:10;3.20;;;1.63;;
72882;SDS011;61017;37.812;-122.286;2022-12-07T06:08:21;3.90;;;1.60;;
72882;SDS011;61017;37.812;-122.286;2022-12-07T06:10:14;3.08;;;1.45;;
72882;SDS011;61017;37.812;-122.286;2022-12-07T06:12:04;2.70;;;1.58;;
72882;SDS011;61017;37.812;-122.286;2022-12-07T06:14:02;3.55;;;1.48;;
72882;SDS011;61017;37.812;-122.286;2022-12-07T06:15:53;4.13;;;1.70;;
72882;SDS011;61017;37.812;-122.286;2022-12-07T06:17:48;3.08;;;1.38;;
72882;SDS011;61017;37.812;-122.286;2022-12-07T06:19:38;3.47;;;1.42;;
72882;SDS011;61017;37.812;-122.286;2022-12-07T06:21:28;3.40;;;1.50;;
72882;SDS011;61017;37.812;-122.286;2022-12-07T06:23:19;3.03;;;1.50;;
72882;SDS011;61017;37.812;-122.286;2022-12-07T06:25:08;4.32;;;1.52;;
72882;SDS011;61017;37.812;-122.286;2022-12-07T06:26:58;3.05;;;1.58;;
72882;SDS011;61017;37.812;-122.286;2022-12-07T06:28:48;5.22;;;1.40;;
72882;SDS011;61017;37.812;-122.286;2022-12-07T06:30:38;2.72;;;1.50;;
72882;SDS011;61017;37.812;-122.286;2022-12-07T06:32:28;4.00;;;1.45;;
72882;SDS011;61017;37.812;-122.286;2022-12-07T06:34:22;3.05;;;1.42;;
72882;SDS011;61017;37.812;-122.286;2022-12-07T06:36:14;3.25;;;1.35;;
72882;SDS011;61017;37.812;-122.286;2022-12-07T06:38:05;3.85;;;1.55;;
72882;SDS011;61017;37.812;-122.286;2022-12-07T06:39:55;4.45;;;1.60;;
72882;SDS011;61017;37.812;-122.286;2022-12-07T06:41:47;2.80;;;1.40;;
72882;SDS011;61017;37.812;-122.286;2022-12-07T06:43:37;3.03;;;1.50;;
72882;SDS011;61017;37.812;-122.286;2022-12-07T06:45:27;4.63;;;1.50;;
72882;SDS011;61017;37.812;-122.286;2022-12-07T06:47:17;3.65;;;1.60;;
72882;SDS011;61017;37.812;-122.286;2022-12-07T06:49:11;4.50;;;1.60;;
72882;SDS011;61017;37.812;-122.286;2022-12-07T06:51:01;3.58;;;1.55;;
72882;SDS011;61017;37.812;-122.286;2022-12-07T06:52:52;3.13;;;1.58;;
72882;SDS011;61017;37.812;-122.286;2022-12-07T06:54:42;2.75;;;1.48;;
72882;SDS011;61017;37.812;-122.286;2022-12-07T06:56:32;2.30;;;1.50;;
72882;SDS011;61017;37.812;-122.286;2022-12-07T06:58:22;4.75;;;1.60;;
72882;SDS011;61017;37.812;-122.286;2022-12-07T07:00:13;2.72;;;1.50;;
72882;SDS011;61017;37.812;-122.286;2022-12-07T07:02:03;2.85;;;1.35;;
72882;SDS011;61017;37.812;-122.286;2022-12-07T07:03:53;3.78;;;1.60;;
72882;SDS011;61017;37.812;-122.286;2022-12-07T07:05:45;2.53;;;1.23;;
72882;SDS011;61017;37.812;-122.286;2022-12-07T07:09:37;2.55;;;1.55;;
72882;SDS011;61017;37.812;-122.286;2022-12-07T07:11:27;5.85;;;1.90;;
72882;SDS011;61017;37.812;-122.286;2022-12-07T07:13:17;3.28;;;1.55;;
72882;SDS011;61017;37.812;-122.286;2022-12-07T07:15:07;2.72;;;1.60;;
72882;SDS011;61017;37.812;-122.286;2022-12-07T07:16:57;3.03;;;1.42;;
72882;SDS011;61017;37.812;-122.286;2022-12-07T07:18:47;5.70;;;1.85;;
72882;SDS011;61017;37.812;-122.286;2022-12-07T07:20:37;5.95;;;1.60;;
72882;SDS011;61017;37.812;-122.286;2022-12-07T07:22:27;5.53;;;1.95;;
72882;SDS011;61017;37.812;-122.286;2022-12-07T07:24:17;5.10;;;1.60;;
72882;SDS011;61017;37.812;-122.286;2022-12-07T07:26:07;3.22;;;1.60;;
72882;SDS011;61017;37.812;-122.286;2022-12-07T07:27:57;2.20;;;1.40;;
72882;SDS011;61017;37.812;-122.286;2022-12-07T07:29:47;3.53;;;1.73;;
72882;SDS011;61017;37.812;-122.286;2022-12-07T07:31:37;4.35;;;1.52;;
72882;SDS011;61017;37.812;-122.286;2022-12-07T07:33:27;2.55;;;1.50;;
72882;SDS011;61017;37.812;-122.286;2022-12-07T07:35:17;3.03;;;1.90;;
72882;SDS011;61017;37.812;-122.286;2022-12-07T07:37:07;3.70;;;1.70;;
72882;SDS011;61017;37.812;-122.286;2022-12-07T07:38:57;4.00;;;1.70;;
72882;SDS011;61017;37.812;-122.286;2022-12-07T07:40:47;3.05;;;1.60;;
72882;SDS011;61017;37.812;-122.286;2022-12-07T07:42:37;5.85;;;1.95;;
72882;SDS011;61017;37.812;-122.286;2022-12-07T07:44:27;3.70;;;1.67;;
72882;SDS011;61017;37.812;-122.286;2022-12-07T07:46:17;2.53;;;1.77;;
72882;SDS011;61017;37.812;-122.286;2022-12-07T07:48:07;4.07;;;1.90;;
72882;SDS011;61017;37.812;-122.286;2022-12-07T07:49:58;4.75;;;1.98;;
72882;SDS011;61017;37.812;-122.286;2022-12-07T07:51:49;3.33;;;1.60;;
72882;SDS011;61017;37.812;-122.286;2022-12-07T07:53:40;3.42;;;1.80;;
72882;SDS011;61017;37.812;-122.286;2022-12-07T07:55:30;3.13;;;1.80;;
72882;SDS011;61017;37.812;-122.286;2022-12-07T07:57:20;3.08;;;1.67;;
72882;SDS011;61017;37.812;-122.286;2022-12-07T07:59:09;3.17;;;1.75;;
72882;SDS011;61017;37.812;-122.286;2022-12-07T08:01:03;3.17;;;1.85;;
72882;SDS011;61017;37.812;-122.286;2022-12-07T08:02:57;2.60;;;1.70;;
72882;SDS011;61017;37.812;-122.286;2022-12-07T08:04:48;3.00;;;1.98;;
72882;SDS011;61017;37.812;-122.286;2022-12-07T08:06:38;3.40;;;1.90;;
72882;SDS011;61017;37.812;-122.286;2022-12-07T08:08:29;3.53;;;1.80;;
72882;SDS011;61017;37.812;-122.286;2022-12-07T08:10:19;4.28;;;1.80;;
72882;SDS011;61017;37.812;-122.286;2022-12-07T08:12:08;4.22;;;1.77;;
72882;SDS011;61017;37.812;-122.286;2022-12-07T08:13:58;3.90;;;2.30;;
72882;SDS011;61017;37.812;-122.286;2022-12-07T08:15:49;3.90;;;2.00;;
72882;SDS011;61017;37.812;-122.286;2022-12-07T08:17:39;5.18;;;2.00;;
72882;SDS011;61017;37.812;-122.286;2022-12-07T08:19:29;3.85;;;2.17;;
72882;SDS011;61017;37.812;-122.286;2022-12-07T08:21:20;4.55;;;2.10;;
72882;SDS011;61017;37.812;-122.286;2022-12-07T08:23:10;3.15;;;1.98;;
72882;SDS011;61017;37.812;-122.286;2022-12-07T08:25:00;4.72;;;2.10;;
72882;SDS011;61017;37.812;-122.286;2022-12-07T08:26:51;4.45;;;2.03;;
72882;SDS011;61017;37.812;-122.286;2022-12-07T08:28:41;4.15;;;2.10;;
72882;SDS011;61017;37.812;-122.286;2022-12-07T08:30:32;3.60;;;2.10;;
72882;SDS011;61017;37.812;-122.286;2022-12-07T08:32:22;4.25;;;2.35;;
72882;SDS011;61017;37.812;-122.286;2022-12-07T08:34:13;4.22;;;2.13;;
72882;SDS011;61017;37.812;-122.286;2022-12-07T08:36:04;4.38;;;2.10;;
72882;SDS011;61017;37.812;-122.286;2022-12-07T08:37:56;5.13;;;2.28;;
72882;SDS011;61017;37.812;-122.286;2022-12-07T08:39:46;5.45;;;2.20;;
72882;SDS011;61017;37.812;-122.286;2022-12-07T08:41:36;4.25;;;2.20;;
72882;SDS011;61017;37.812;-122.286;2022-12-07T08:43:26;4.25;;;2.30;;
72882;SDS011;61017;37.812;-122.286;2022-12-07T08:45:17;2.97;;;2.00;;
72882;SDS011;61017;37.812;-122.286;2022-12-07T08:47:08;4.75;;;2.42;;
72882;SDS011;61017;37.812;-122.286;2022-12-07T08:51:00;4.38;;;2.58;;
72882;SDS011;61017;37.812;-122.286;2022-12-07T08:52:52;4.25;;;2.35;;
72882;SDS011;61017;37.812;-122.286;2022-12-07T08:54:46;4.45;;;2.28;;
72882;SDS011;61017;37.812;-122.286;2022-12-07T08:56:40;4.05;;;2.33;;
72882;SDS011;61017;37.812;-122.286;2022-12-07T08:58:31;5.57;;;2.40;;
72882;SDS011;61017;37.812;-122.286;2022-12-07T09:00:22;4.57;;;2.50;;
72882;SDS011;61017;37.812;-122.286;2022-12-07T09:02:14;6.88;;;2.70;;
72882;SDS011;61017;37.812;-122.286;2022-12-07T09:04:04;5.70;;;2.15;;
72882;SDS011;61017;37.812;-122.286;2022-12-07T09:05:54;4.97;;;2.50;;
72882;SDS011;61017;37.812;-122.286;2022-12-07T09:07:45;4.28;;;2.58;;
72882;SDS011;61017;37.812;-122.286;2022-12-07T09:09:38;5.53;;;2.20;;
72882;SDS011;61017;37.812;-122.286;2022-12-07T09:11:28;4.07;;;2.50;;
72882;SDS011;61017;37.812;-122.286;2022-12-07T09:13:18;4.72;;;2.58;;
72882;SDS011;61017;37.812;-122.286;2022-12-07T09:15:10;4.25;;;2.50;;
72882;SDS011;61017;37.812;-122.286;2022-12-07T09:17:07;7.07;;;2.85;;
72882;SDS011;61017;37.812;-122.286;2022-12-07T09:18:58;4.28;;;2.55;;
72882;SDS011;61017;37.812;-122.286;2022-12-07T09:20:48;5.00;;;2.50;;
72882;SDS011;61017;37.812;-122.286;2022-12-07T09:22:38;4.35;;;2.67;;
72882;SDS011;61017;37.812;-122.286;2022-12-07T09:24:28;3.38;;;2.42;;
72882;SDS011;61017;37.812;-122.286;2022-12-07T09:26:18;4.15;;;2.50;;
72882;SDS011;61017;37.812;-122.286;2022-12-07T09:28:08;4.25;;;2.80;;
72882;SDS011;61017;37.812;-122.286;2022-12-07T09:29:58;4.05;;;2.58;;
72882;SDS011;61017;37.812;-122.286;2022-12-07T09:31:48;5.50;;;2.60;;
72882;SDS011;61017;37.812;-122.286;2022-12-07T09:33:39;5.55;;;2.58;;
72882;SDS011;61017;37.812;-122.286;2022-12-07T09:35:29;4.15;;;2.50;;
72882;SDS011;61017;37.812;-122.286;2022-12-07T09:37:19;5.38;;;2.22;;
72882;SDS011;61017;37.812;-122.286;2022-12-07T09:39:09;4.57;;;2.53;;
72882;SDS011;61017;37.812;-122.286;2022-12-07T09:41:03;5.07;;;2.78;;
72882;SDS011;61017;37.812;-122.286;2022-12-07T09:42:57;4.97;;;2.70;;
72882;SDS011;61017;37.812;-122.286;2022-12-07T09:44:47;4.82;;;2.53;;
72882;SDS011;61017;37.812;-122.286;2022-12-07T09:46:38;3.60;;;2.28;;
72882;SDS011;61017;37.812;-122.286;2022-12-07T09:48:35;4.43;;;2.45;;
72882;SDS011;61017;37.812;-122.286;2022-12-07T09:50:28;4.80;;;2.45;;
72882;SDS011;61017;37.812;-122.286;2022-12-07T09:52:19;4.00;;;2.58;;
72882;SDS011;61017;37.812;-122.286;2022-12-07T09:54:19;4.20;;;2.50;;
72882;SDS011;61017;37.812;-122.286;2022-12-07T09:56:16;4.55;;;2.60;;
72882;SDS011;61017;37.812;-122.286;2022-12-07T09:58:10;4.32;;;2.33;;
72882;SDS011;61017;37.812;-122.286;2022-12-07T10:00:13;4.05;;;2.42;;
72882;SDS011;61017;37.812;-122.286;2022-12-07T10:04:37;4.10;;;2.47;;
72882;SDS011;61017;37.812;-122.286;2022-12-07T10:06:27;4.60;;;2.40;;
72882;SDS011;61017;37.812;-122.286;2022-12-07T10:08:17;3.65;;;2.60;;
72882;SDS011;61017;37.812;-122.286;2022-12-07T10:10:23;4.55;;;2.67;;
72882;SDS011;61017;37.812;-122.286;2022-12-07T10:12:23;4.85;;;2.40;;
72882;SDS011;61017;37.812;-122.286;2022-12-07T10:14:14;4.68;;;2.60;;
72882;SDS011;61017;37.812;-122.286;2022-12-07T10:16:04;3.88;;;2.20;;
72882;SDS011;61017;37.812;-122.286;2022-12-07T10:20:22;3.80;;;2.40;;
72882;SDS011;61017;37.812;-122.286;2022-12-07T10:22:15;4.28;;;2.50;;
72882;SDS011;61017;37.812;-122.286;2022-12-07T10:26:06;4.45;;;2.50;;
72882;SDS011;61017;37.812;-122.286;2022-12-07T10:30:07;5.55;;;2.63;;
72882;SDS011;61017;37.812;-122.286;2022-12-07T10:32:04;4.38;;;2.60;;
72882;SDS011;61017;37.812;-122.286;2022-12-07T10:34:23;3.95;;;2.50;;
72882;SDS011;61017;37.812;-122.286;2022-12-07T10:36:17;6.95;;;2.47;;
72882;SDS011;61017;37.812;-122.286;2022-12-07T10:40:18;6.47;;;2.53;;
72882;SDS011;61017;37.812;-122.286;2022-12-07T10:42:16;7.18;;;2.70;;
72882;SDS011;61017;37.812;-122.286;2022-12-07T10:44:11;4.68;;;2.40;;
72882;SDS011;61017;37.812;-122.286;2022-12-07T10:46:22;4.18;;;2.55;;
72882;SDS011;61017;37.812;-122.286;2022-12-07T10:52:43;5.35;;;2.75;;
72882;SDS011;61017;37.812;-122.286;2022-12-07T10:57:12;4.85;;;2.65;;
72882;SDS011;61017;37.812;-122.286;2022-12-07T11:03:37;4.47;;;2.20;;
72882;SDS011;61017;37.812;-122.286;2022-12-07T11:05:54;4.22;;;2.40;;
72882;SDS011;61017;37.812;-122.286;2022-12-07T11:14:56;4.18;;;2.40;;
72882;SDS011;61017;37.812;-122.286;2022-12-07T11:23:31;4.20;;;2.35;;
72882;SDS011;61017;37.812;-122.286;2022-12-07T11:25:37;4.07;;;2.22;;
72882;SDS011;61017;37.812;-122.286;2022-12-07T11:27:40;5.38;;;2.55;;
72882;SDS011;61017;37.812;-122.286;2022-12-07T11:35:01;4.53;;;2.40;;
72882;SDS011;61017;37.812;-122.286;2022-12-07T11:37:37;3.72;;;2.50;;
72882;SDS011;61017;37.812;-122.286;2022-12-07T11:39:33;4.57;;;2.40;;
72882;SDS011;61017;37.812;-122.286;2022-12-07T11:41:33;3.78;;;2.22;;
72882;SDS011;61017;37.812;-122.286;2022-12-07T11:43:27;3.92;;;2.40;;
72882;SDS011;61017;37.812;-122.286;2022-12-07T11:45:23;4.03;;;2.40;;
72882;SDS011;61017;37.812;-122.286;2022-12-07T11:51:38;4.03;;;2.30;;
72882;SDS011;61017;37.812;-122.286;2022-12-07T11:53:34;3.97;;;2.53;;
72882;SDS011;61017;37.812;-122.286;2022-12-07T11:57:40;3.78;;;2.28;;
72882;SDS011;61017;37.812;-122.286;2022-12-07T11:59:45;3.47;;;2.30;;
72882;SDS011;61017;37.812;-122.286;2022-12-07T12:01:55;4.30;;;2.45;;
72882;SDS011;61017;37.812;-122.286;2022-12-07T12:04:07;3.55;;;2.30;;
72882;SDS011;61017;37.812;-122.286;2022-12-07T12:06:21;4.03;;;2.40;;
72882;SDS011;61017;37.812;-122.286;2022-12-07T12:08:24;3.95;;;2.38;;
72882;SDS011;61017;37.812;-122.286;2022-12-07T12:10:24;3.90;;;2.30;;
72882;SDS011;61017;37.812;-122.286;2022-12-07T12:12:36;4.25;;;2.40;;
72882;SDS011;61017;37.812;-122.286;2022-12-07T12:20:46;3.95;;;2.47;;
72882;SDS011;61017;37.812;-122.286;2022-12-07T12:22:52;3.53;;;2.22;;
72882;SDS011;61017;37.812;-122.286;2022-12-07T12:25:04;3.55;;;2.17;;
72882;SDS011;61017;37.812;-122.286;2022-12-07T12:27:05;2.97;;;2.20;;